createdAt,value
2022-11-15T00:01:27.422Z,43.87
2022-11-15T00:04:14.097Z,41.73
2022-11-15T00:07:00.897Z,43.07
2022-11-15T00:09:49.097Z,42.80
2022-11-15T00:12:36.027Z,44.03
2022-11-15T00:15:23.198Z,41.70
2022-11-15T00:18:16.147Z,41.80
2022-11-15T00:21:08.490Z,43.23
2022-11-15T00:23:55.615Z,45.87
2022-11-15T00:26:43.906Z,45.43
2022-11-15T00:29:30.889Z,42.17
2022-11-15T00:32:18.052Z,41.17
2022-11-15T00:35:05.844Z,47.53
2022-11-15T00:37:55.283Z,45.70
2022-11-15T00:40:41.984Z,42.53
2022-11-15T00:43:30.459Z,44.17
2022-11-15T00:46:17.394Z,40.87
2022-11-15T00:49:04.225Z,40.90
2022-11-15T00:51:51.232Z,40.43
2022-11-15T00:54:38.031Z,42.67
2022-11-15T00:57:24.847Z,41.13
2022-11-15T01:00:14.524Z,43.03
2022-11-15T01:03:02.569Z,42.27
2022-11-15T01:05:49.577Z,42.70
2022-11-15T01:08:36.767Z,44.20
2022-11-15T01:11:23.479Z,40.53
2022-11-15T01:14:10.386Z,41.50
2022-11-15T01:16:58.757Z,42.20
2022-11-15T01:19:45.698Z,41.53
2022-11-15T01:22:32.538Z,43.70
2022-11-15T01:25:19.639Z,40.53
2022-11-15T01:28:06.529Z,42.37
2022-11-15T01:30:53.377Z,42.17
2022-11-15T01:33:41.607Z,42.83
2022-11-15T01:36:28.842Z,41.17
2022-11-15T01:39:16.219Z,41.97
2022-11-15T01:42:03.291Z,44.17
2022-11-15T01:44:52.711Z,40.90
2022-11-15T01:47:45.100Z,42.47
2022-11-15T01:50:35.256Z,43.27
2022-11-15T01:53:27.014Z,39.57
2022-11-15T01:56:21.041Z,40.40
2022-11-15T01:59:10.867Z,43.40
2022-11-15T02:01:58.298Z,42.13
2022-11-15T02:04:48.511Z,43.27
2022-11-15T02:07:38.497Z,44.33
2022-11-15T02:10:26.815Z,41.87
2022-11-15T02:13:14.217Z,44.47
2022-11-15T02:16:15.477Z,41.27
2022-11-15T02:19:22.287Z,41.33
2022-11-15T02:22:26.855Z,40.17
2022-11-15T02:25:40.398Z,41.83
2022-11-15T02:28:50.378Z,37.67
2022-11-15T02:31:51.994Z,42.27
2022-11-15T02:34:55.198Z,41.77
2022-11-15T02:37:51.801Z,42.07
2022-11-15T02:40:51.495Z,41.20
2022-11-15T02:43:59.260Z,44.33
2022-11-15T02:47:11.147Z,42.23
2022-11-15T02:50:04.481Z,41.93
2022-11-15T02:52:53.016Z,44.23
2022-11-15T02:55:45.569Z,41.70
2022-11-15T02:59:02.536Z,43.73
2022-11-15T03:02:10.952Z,44.37
2022-11-15T03:05:03.849Z,42.47
2022-11-15T03:08:02.888Z,42.63
2022-11-15T03:11:04.832Z,42.07
2022-11-15T03:14:00.692Z,42.00
2022-11-15T03:16:59.330Z,39.67
2022-11-15T03:19:49.492Z,40.47
2022-11-15T03:22:39.726Z,40.97
2022-11-15T03:25:30.718Z,36.03
2022-11-15T03:28:24.848Z,40.33
2022-11-15T03:31:34.029Z,42.77
2022-11-15T03:34:30.041Z,39.57
2022-11-15T03:37:22.877Z,39.83
2022-11-15T03:40:12.024Z,38.43
2022-11-15T03:43:09.075Z,41.13
2022-11-15T03:46:04.108Z,42.93
2022-11-15T03:48:57.911Z,41.10
2022-11-15T03:51:46.433Z,39.03
2022-11-15T03:54:35.015Z,38.57
2022-11-15T03:57:22.407Z,39.73
2022-11-15T04:00:11.946Z,40.57
2022-11-15T04:02:58.951Z,38.40
2022-11-15T04:05:45.844Z,37.63
2022-11-15T04:08:33.953Z,40.37
2022-11-15T04:11:20.987Z,37.00
2022-11-15T04:14:07.712Z,39.37
2022-11-15T04:16:54.615Z,38.67
2022-11-15T04:19:59.456Z,37.67
2022-11-15T04:23:04.062Z,34.93
2022-11-15T04:25:55.897Z,33.37
2022-11-15T04:28:57.014Z,34.47
2022-11-15T04:31:44.318Z,31.80
2022-11-15T04:34:31.597Z,36.03
2022-11-15T04:37:18.503Z,37.17
2022-11-15T04:40:06.377Z,34.03
2022-11-15T04:43:02.344Z,37.43
2022-11-15T04:45:50.627Z,38.63
2022-11-15T04:48:37.666Z,36.70
2022-11-15T04:51:24.703Z,37.10
2022-11-15T04:54:11.603Z,35.63
2022-11-15T04:56:58.353Z,32.80
2022-11-15T04:59:46.552Z,35.13
2022-11-15T05:02:47.465Z,36.07
2022-11-15T05:05:34.700Z,32.20
2022-11-15T05:08:21.707Z,37.40
2022-11-15T05:11:08.595Z,35.90
2022-11-15T05:13:56.277Z,31.77
2022-11-15T05:16:45.149Z,34.00
2022-11-15T05:19:31.989Z,39.97
2022-11-15T05:22:19.024Z,33.53
2022-11-15T05:25:07.114Z,35.97
2022-11-15T05:27:54.190Z,35.17
2022-11-15T05:30:40.921Z,33.97
2022-11-15T05:33:29.653Z,34.27
2022-11-15T05:36:27.769Z,35.70
2022-11-15T05:39:15.284Z,34.63
2022-11-15T05:42:09.364Z,37.10
2022-11-15T05:44:56.587Z,35.53
2022-11-15T05:47:44.270Z,34.27
2022-11-15T05:50:33.356Z,32.57
2022-11-15T05:53:25.100Z,31.97
2022-11-15T05:56:12.800Z,32.93
2022-11-15T05:59:01.138Z,31.33
2022-11-15T06:01:48.025Z,30.67
2022-11-15T06:04:35.291Z,31.03
2022-11-15T06:07:23.584Z,28.53
2022-11-15T06:10:11.267Z,30.87
2022-11-15T06:13:02.577Z,33.93
2022-11-15T06:15:49.163Z,29.13
2022-11-15T06:18:36.810Z,31.27
2022-11-15T06:21:23.894Z,31.23
2022-11-15T06:24:12.115Z,30.60
2022-11-15T06:26:59.941Z,30.10
2022-11-15T06:29:46.912Z,29.50
2022-11-15T06:32:33.647Z,28.23
2022-11-15T06:35:20.506Z,28.80
2022-11-15T06:38:09.701Z,29.60
2022-11-15T06:41:03.758Z,26.50
2022-11-15T06:43:50.464Z,28.10
2022-11-15T06:46:37.341Z,27.90
2022-11-15T06:49:24.532Z,27.37
2022-11-15T06:52:11.429Z,26.20
2022-11-15T06:54:58.241Z,25.27
2022-11-15T06:57:54.155Z,28.93
2022-11-15T07:00:41.508Z,26.60
2022-11-15T07:03:28.758Z,26.87
2022-11-15T07:06:17.365Z,29.63
2022-11-15T07:09:05.253Z,30.67
2022-11-15T07:11:51.918Z,29.77
2022-11-15T07:14:40.017Z,26.10
2022-11-15T07:17:26.624Z,26.80
2022-11-15T07:20:15.292Z,29.33
2022-11-15T07:23:03.772Z,25.50
2022-11-15T07:25:50.476Z,28.60
2022-11-15T07:28:38.168Z,25.97
2022-11-15T07:31:26.770Z,27.97
2022-11-15T07:34:14.005Z,26.40
2022-11-15T07:37:00.936Z,27.47
2022-11-15T07:39:48.117Z,29.40
2022-11-15T07:42:52.701Z,31.23
2022-11-15T07:45:44.527Z,28.43
2022-11-15T07:48:43.403Z,33.30
2022-11-15T07:51:31.777Z,28.70
2022-11-15T07:54:18.489Z,24.80
2022-11-15T07:57:07.434Z,28.67
2022-11-15T07:59:54.960Z,27.10
2022-11-15T08:02:42.665Z,27.60
2022-11-15T08:05:31.192Z,29.10
2022-11-15T08:08:18.592Z,32.67
2022-11-15T08:11:06.058Z,24.40
2022-11-15T08:13:52.817Z,28.70
2022-11-15T08:16:40.588Z,25.87
2022-11-15T08:19:27.414Z,25.30
2022-11-15T08:22:16.066Z,27.93
2022-11-15T08:25:02.824Z,23.97
2022-11-15T08:27:49.889Z,26.97
2022-11-15T08:30:42.411Z,24.33
2022-11-15T08:33:30.252Z,23.63
2022-11-15T08:36:19.235Z,26.97
2022-11-15T08:39:07.754Z,24.90
2022-11-15T08:41:54.739Z,27.53
2022-11-15T08:44:41.759Z,28.40
2022-11-15T08:47:29.124Z,26.37
2022-11-15T08:50:16.325Z,30.83
2022-11-15T08:53:08.139Z,29.10
2022-11-15T08:55:57.119Z,24.67
2022-11-15T08:58:44.560Z,27.40
2022-11-15T09:01:31.952Z,25.43
2022-11-15T09:04:19.344Z,30.33
2022-11-15T09:07:06.601Z,28.90
2022-11-15T09:09:53.230Z,25.17
2022-11-15T09:12:41.284Z,27.60
2022-11-15T09:15:28.025Z,26.20
2022-11-15T09:18:15.149Z,29.47
2022-11-15T09:21:03.481Z,27.53
2022-11-15T09:23:53.854Z,22.60
2022-11-15T09:26:40.840Z,27.13
2022-11-15T09:29:29.237Z,25.77
2022-11-15T09:32:16.265Z,24.70
2022-11-15T09:35:03.865Z,24.73
2022-11-15T09:37:56.166Z,24.63
2022-11-15T09:40:43.341Z,25.63
2022-11-15T09:43:43.018Z,25.23
2022-11-15T09:46:50.260Z,25.00
2022-11-15T09:49:37.848Z,25.35
2022-11-15T09:52:26.097Z,28.25
2022-11-15T09:54:56.361Z,27.58
2022-11-15T09:57:39.601Z,22.95
2022-11-15T10:03:16.100Z,25.08
2022-11-15T10:05:48.134Z,26.17
2022-11-15T10:08:47.524Z,29.92
2022-11-15T10:11:36.800Z,26.67
2022-11-15T10:14:13.451Z,23.00
2022-11-15T10:17:30.186Z,23.58
2022-11-15T10:20:13.714Z,22.48
2022-11-15T10:22:48.358Z,26.13
2022-11-15T10:25:24.967Z,28.05
2022-11-15T10:27:58.374Z,24.63
2022-11-15T10:30:35.929Z,22.23
2022-11-15T10:33:22.498Z,26.93
2022-11-15T10:36:24.798Z,24.10
2022-11-15T10:38:57.915Z,27.42
2022-11-15T10:41:37.202Z,26.33
2022-11-15T10:44:30.536Z,26.73
2022-11-15T10:47:39.679Z,22.30
2022-11-15T10:50:29.706Z,22.60
2022-11-15T10:53:02.211Z,25.95
2022-11-15T10:55:33.659Z,24.10
2022-11-15T10:58:07.803Z,24.35
2022-11-15T11:00:40.119Z,24.08
2022-11-15T11:03:30.093Z,19.73
2022-11-15T11:06:12.508Z,19.50
2022-11-15T11:08:43.055Z,22.27
2022-11-15T11:11:11.307Z,25.10
2022-11-15T11:13:41.638Z,20.02
2022-11-15T11:16:43.205Z,18.38
2022-11-15T11:19:39.083Z,18.83
2022-11-15T11:22:19.683Z,17.17
2022-11-15T11:25:04.606Z,21.00
2022-11-15T11:27:46.436Z,19.88
2022-11-15T11:30:20.677Z,19.95
2022-11-15T11:33:11.964Z,21.00
2022-11-15T11:35:53.742Z,17.58
2022-11-15T11:38:55.858Z,25.33
2022-11-15T11:41:48.774Z,17.80
2022-11-15T11:44:30.769Z,16.55
2022-11-15T11:47:03.503Z,19.92
2022-11-15T11:49:42.173Z,19.00
2022-11-15T11:52:18.536Z,18.50
2022-11-15T11:55:01.145Z,17.50
2022-11-15T11:57:43.329Z,15.05
2022-11-15T12:00:22.672Z,14.93
2022-11-15T12:03:09.932Z,14.85
2022-11-15T12:05:43.814Z,19.45
2022-11-15T12:08:35.538Z,18.02
2022-11-15T12:11:15.756Z,17.38
2022-11-15T12:13:50.124Z,16.35
2022-11-15T12:16:23.925Z,18.73
2022-11-15T12:18:55.677Z,16.85
2022-11-15T12:21:36.166Z,14.80
2022-11-15T12:24:14.205Z,20.50
2022-11-15T12:26:50.474Z,17.08
2022-11-15T12:29:28.835Z,16.80
2022-11-15T12:32:00.858Z,17.15
2022-11-15T12:34:49.171Z,19.75
2022-11-15T12:37:52.411Z,18.42
2022-11-15T12:40:41.368Z,15.18
2022-11-15T12:43:43.343Z,17.50
2022-11-15T12:46:25.340Z,18.50
2022-11-15T12:49:00.098Z,14.35
2022-11-15T12:52:09.311Z,17.95
2022-11-15T12:55:03.956Z,17.40
2022-11-15T12:57:40.717Z,16.27
2022-11-15T13:00:46.874Z,15.93
2022-11-15T13:03:25.712Z,15.30
2022-11-15T13:06:42.801Z,15.43
2022-11-15T13:10:03.463Z,22.40
2022-11-15T13:12:56.725Z,15.70
2022-11-15T13:15:57.027Z,17.15
2022-11-15T13:18:56.015Z,17.50
2022-11-15T13:21:43.803Z,18.75
2022-11-15T13:24:17.840Z,18.92
2022-11-15T13:26:47.324Z,13.20
2022-11-15T13:29:20.450Z,13.75
2022-11-15T13:31:50.219Z,15.10
2022-11-15T13:37:34.315Z,22.05
2022-11-15T13:40:28.375Z,16.90
2022-11-15T13:42:56.740Z,17.20
2022-11-15T13:45:27.135Z,13.50
2022-11-15T13:47:58.315Z,19.10
2022-11-15T13:50:35.341Z,15.25
2022-11-15T13:53:07.131Z,20.52
2022-11-15T13:55:36.006Z,16.00
2022-11-15T13:58:07.834Z,16.27
2022-11-15T14:00:43.110Z,15.10
2022-11-15T14:03:21.787Z,14.88
2022-11-15T14:06:08.652Z,17.92
2022-11-15T14:08:37.831Z,16.88
2022-11-15T14:11:15.944Z,15.77
2022-11-15T14:14:01.562Z,17.30
2022-11-15T14:16:37.481Z,13.48
2022-11-15T14:19:07.721Z,16.60
2022-11-15T14:21:38.177Z,14.93
2022-11-15T14:24:22.059Z,17.58
2022-11-15T14:26:50.602Z,16.08
2022-11-15T14:29:26.589Z,12.88
2022-11-15T14:31:55.831Z,13.10
2022-11-15T14:34:24.176Z,15.50
2022-11-15T14:36:53.870Z,14.73
2022-11-15T14:39:23.161Z,13.02
2022-11-15T14:41:51.469Z,15.35
2022-11-15T14:44:21.515Z,14.25
2022-11-15T14:46:50.054Z,14.32
2022-11-15T14:49:18.577Z,15.57
2022-11-15T14:51:46.860Z,14.45
2022-11-15T14:54:16.804Z,19.67
2022-11-15T14:56:45.046Z,16.63
2022-11-15T14:59:14.463Z,16.27
2022-11-15T15:01:42.787Z,14.20
2022-11-15T15:04:12.685Z,16.30
2022-11-15T15:06:41.158Z,13.95
2022-11-15T15:09:09.461Z,16.08
2022-11-15T15:11:39.191Z,19.27
2022-11-15T15:14:07.482Z,16.27
2022-11-15T15:16:35.748Z,16.15
2022-11-15T15:19:04.182Z,14.85
2022-11-15T15:21:37.131Z,16.83
2022-11-15T15:24:06.700Z,21.77
2022-11-15T15:26:37.228Z,16.17
2022-11-15T15:29:07.588Z,15.27
2022-11-15T15:31:35.964Z,14.70
2022-11-15T15:34:05.283Z,18.60
2022-11-15T15:36:33.655Z,14.40
2022-11-15T15:39:02.048Z,24.70
2022-11-15T15:41:30.404Z,17.35
2022-11-15T15:43:58.714Z,20.33
2022-11-15T15:46:28.595Z,14.52
2022-11-15T15:48:56.972Z,18.52
2022-11-15T15:51:25.368Z,17.85
2022-11-15T15:53:58.058Z,21.40
2022-11-15T15:56:26.655Z,17.13
2022-11-15T15:58:56.432Z,15.88
2022-11-15T16:01:25.719Z,18.13
2022-11-15T16:03:55.409Z,15.27
2022-11-15T16:06:40.176Z,15.27
2022-11-15T16:09:16.117Z,14.18
2022-11-15T16:11:48.032Z,15.55
2022-11-15T16:14:16.503Z,17.00
2022-11-15T16:16:44.918Z,18.83
2022-11-15T16:19:14.550Z,17.52
2022-11-15T16:21:42.956Z,19.70
2022-11-15T16:24:11.240Z,16.73
2022-11-15T16:26:40.280Z,16.67
2022-11-15T16:29:10.172Z,18.85
2022-11-15T16:31:38.646Z,14.10
2022-11-15T16:34:07.170Z,16.83
2022-11-15T16:36:37.594Z,19.33
2022-11-15T16:39:06.010Z,18.20
2022-11-15T16:41:34.703Z,16.02
2022-11-15T16:44:03.016Z,17.48
2022-11-15T16:46:31.582Z,17.30
2022-11-15T16:49:00.018Z,16.08
2022-11-15T16:51:29.413Z,16.10
2022-11-15T16:53:59.118Z,16.30
2022-11-15T16:56:30.279Z,15.15
2022-11-15T16:59:00.954Z,19.92
2022-11-15T17:01:31.473Z,18.08
2022-11-15T17:04:12.364Z,19.27
2022-11-15T17:06:42.112Z,15.40
2022-11-15T17:09:16.187Z,17.52
2022-11-15T17:11:44.993Z,16.63
2022-11-15T17:14:14.200Z,15.57
2022-11-15T17:16:44.386Z,18.05
2022-11-15T17:19:18.943Z,16.90
2022-11-15T17:21:49.619Z,16.75
2022-11-15T17:24:20.877Z,15.25
2022-11-15T17:26:49.414Z,20.67
2022-11-15T17:29:18.487Z,16.80
2022-11-15T17:31:46.834Z,21.33
2022-11-15T17:34:15.266Z,18.98
2022-11-15T17:36:43.655Z,18.90
2022-11-15T17:39:11.964Z,21.55
2022-11-15T17:41:41.631Z,19.13
2022-11-15T17:44:09.915Z,19.50
2022-11-15T17:46:38.227Z,18.33
2022-11-15T17:49:06.758Z,17.50
2022-11-15T17:51:35.350Z,18.92
2022-11-15T17:54:03.843Z,21.63
2022-11-15T17:56:32.339Z,17.92
2022-11-15T17:59:02.178Z,20.80
2022-11-15T18:01:32.848Z,18.20
2022-11-15T18:04:03.596Z,18.70
2022-11-15T18:06:35.384Z,18.88
2022-11-15T18:09:05.296Z,20.63
2022-11-15T18:11:38.280Z,19.02
2022-11-15T18:14:13.434Z,21.30
2022-11-15T18:16:43.451Z,17.30
2022-11-15T18:19:13.957Z,20.73
2022-11-15T18:22:00.866Z,16.60
2022-11-15T18:24:32.104Z,17.55
2022-11-15T18:27:01.589Z,19.58
2022-11-15T18:29:32.500Z,18.85
2022-11-15T18:32:03.929Z,16.67
2022-11-15T18:34:34.055Z,17.38
2022-11-15T18:37:05.443Z,17.27
2022-11-15T18:39:33.907Z,18.52
2022-11-15T18:42:03.178Z,16.23
2022-11-15T18:44:33.253Z,15.95
2022-11-15T18:47:01.709Z,19.10
2022-11-15T18:49:30.037Z,23.38
2022-11-15T18:51:58.354Z,19.10
2022-11-15T18:54:30.967Z,20.90
2022-11-15T18:57:00.548Z,20.05
2022-11-15T18:59:30.251Z,14.50
2022-11-15T19:01:59.918Z,16.33
2022-11-15T19:04:28.621Z,15.85
2022-11-15T19:06:57.162Z,16.15
2022-11-15T19:09:32.592Z,14.82
2022-11-15T19:12:01.239Z,16.98
2022-11-15T19:14:29.685Z,15.10
2022-11-15T19:16:59.468Z,15.13
2022-11-15T19:19:29.223Z,16.30
2022-11-15T19:21:58.257Z,15.02
2022-11-15T19:24:27.281Z,16.58
2022-11-15T19:26:55.866Z,17.58
2022-11-15T19:29:24.402Z,20.02
2022-11-15T19:31:52.897Z,20.70
2022-11-15T19:34:22.538Z,16.50
2022-11-15T19:36:51.142Z,17.92
2022-11-15T19:39:19.417Z,18.27
2022-11-15T19:41:48.125Z,17.85
2022-11-15T19:44:18.823Z,15.55
2022-11-15T19:46:47.825Z,16.35
2022-11-15T19:49:16.119Z,14.60
2022-11-15T19:51:48.285Z,16.58
2022-11-15T19:54:17.477Z,16.85
2022-11-15T19:56:45.951Z,19.17
2022-11-15T19:59:15.216Z,17.25
2022-11-15T20:01:43.755Z,17.40
2022-11-15T20:04:12.194Z,16.55
2022-11-15T20:06:43.298Z,17.15
2022-11-15T20:09:17.305Z,17.52
2022-11-15T20:11:46.120Z,18.35
2022-11-15T20:14:14.735Z,19.85
2022-11-15T20:16:43.675Z,18.38
2022-11-15T20:19:15.787Z,17.98
2022-11-15T20:21:44.822Z,20.02
2022-11-15T20:24:15.143Z,17.27
2022-11-15T20:26:43.747Z,20.27
2022-11-15T20:29:12.573Z,21.42
2022-11-15T20:31:41.186Z,19.33
2022-11-15T20:34:09.620Z,18.75
2022-11-15T20:36:38.029Z,17.45
2022-11-15T20:39:06.531Z,21.60
2022-11-15T20:41:36.807Z,20.50
2022-11-15T20:44:05.476Z,18.65
2022-11-15T20:46:33.790Z,18.95
2022-11-15T20:49:02.107Z,18.73
2022-11-15T20:51:30.518Z,21.25
2022-11-15T20:54:02.170Z,20.75
2022-11-15T20:56:30.842Z,19.08
2022-11-15T20:59:02.248Z,19.88
2022-11-15T21:01:31.751Z,20.45
2022-11-15T21:04:00.724Z,22.20
2022-11-15T21:06:29.160Z,23.17
2022-11-15T21:09:15.802Z,20.85
2022-11-15T21:12:02.151Z,21.10
2022-11-15T21:14:31.954Z,21.80
2022-11-15T21:17:00.496Z,22.98
2022-11-15T21:19:35.498Z,22.42
2022-11-15T21:22:07.105Z,21.58
2022-11-15T21:24:35.378Z,25.20
2022-11-15T21:27:03.737Z,22.17
2022-11-15T21:29:39.654Z,20.55
2022-11-15T21:32:10.300Z,23.30
2022-11-15T21:34:38.885Z,21.10
2022-11-15T21:37:07.810Z,23.42
2022-11-15T21:39:36.074Z,19.88
2022-11-15T21:42:04.898Z,21.38
2022-11-15T21:44:34.473Z,25.08
2022-11-15T21:47:02.756Z,25.17
2022-11-15T21:49:31.042Z,23.45
2022-11-15T21:51:59.358Z,21.98
2022-11-15T21:54:27.595Z,23.98
2022-11-15T21:56:55.832Z,22.90
2022-11-15T21:59:24.058Z,22.42
2022-11-15T22:02:11.119Z,22.67
2022-11-15T22:04:39.709Z,21.13
2022-11-15T22:07:08.257Z,25.67
2022-11-15T22:09:36.546Z,26.10
2022-11-15T22:12:05.040Z,23.73
2022-11-15T22:14:33.303Z,21.60
2022-11-15T22:17:03.014Z,20.63
2022-11-15T22:19:31.346Z,25.17
2022-11-15T22:21:59.722Z,23.08
2022-11-15T22:24:28.307Z,21.30
2022-11-15T22:26:56.749Z,20.05
2022-11-15T22:29:25.179Z,21.77
2022-11-15T22:31:53.499Z,23.23
2022-11-15T22:34:23.204Z,22.40
2022-11-15T22:37:19.024Z,27.30
2022-11-15T22:39:42.104Z,22.67
2022-11-15T22:42:11.481Z,23.17
2022-11-15T22:44:39.899Z,21.88
2022-11-15T22:47:08.237Z,22.52
2022-11-15T22:49:38.008Z,23.08
2022-11-15T22:52:06.715Z,22.97
2022-11-15T22:54:35.068Z,22.88
2022-11-15T22:57:04.093Z,23.05
2022-11-15T22:59:32.667Z,25.80
2022-11-15T23:02:00.997Z,21.35
2022-11-15T23:04:29.972Z,24.20
2022-11-15T23:06:59.829Z,24.13
2022-11-15T23:09:28.188Z,25.73
2022-11-15T23:12:14.041Z,24.83
2022-11-15T23:14:42.435Z,26.80
2022-11-15T23:17:10.925Z,23.88
2022-11-15T23:19:39.423Z,23.77
2022-11-15T23:22:26.756Z,21.10
2022-11-15T23:24:55.842Z,22.60
2022-11-15T23:27:24.228Z,26.60
2022-11-15T23:30:06.612Z,23.95
2022-11-15T23:32:52.377Z,22.30
2022-11-15T23:35:21.115Z,24.58
2022-11-15T23:37:50.949Z,24.90
2022-11-15T23:40:19.825Z,23.17
2022-11-15T23:42:48.407Z,21.90
2022-11-15T23:45:16.978Z,22.10
2022-11-15T23:47:45.672Z,24.67
2022-11-15T23:50:14.044Z,23.23
2022-11-15T23:52:42.407Z,22.13
2022-11-15T23:55:12.243Z,27.17
2022-11-15T23:57:40.632Z,25.42
